< < Back
Terminal Aerodrome Forecast


Current Version              Previous Versions:   1  2  3  4  5  6  7  8  9  

Terminal Aerodrome Forecast

670
FTUS42 KTAE 031138
TAFDHN
TAF
KDHN 031138Z 0312/0412 24006KT P6SM SCT008 OVC035
      TEMPO 0312/0314 3SM BR BKN008
     FM031500 24007KT P6SM BKN030
     FM031800 26010KT 5SM TSRA BKN035CB
     FM040000 28006KT P6SM SCT050 BKN250
     FM040600 33007KT P6SM OVC050=



Latest METAR

994
SAUS70 KWBC 032200 RRG
MTRDHN
METAR KDHN 032153Z 30007KT 10SM FEW032 BKN055 OVC075 25/19 A2988 RMK AO2
LTG DSNT E-S RAE09 SLP112 P0005 T02500194


USA.gov is the U.S. government's official web portal to all federal, state and local government web resources and services.